Paganini — V2CL8 — position and weather

sailwx.info

Track history (hours):
 
Tides and Currents Weather Stations Pressure Air Temp Water Temp Dewpoint Dewpoint Depression Visibility Wind Speed Wind Dir Waves Ship Positions

Paganini

Last reported at 2017-Oct-19 08:23 UTC. Time now 2017-Oct-22 15:47 UTC.
Position N 38°02' W 009°55'.

Length 90 m; draft 5.8 m.

Type: Cargo ship. MMSI: 305040000.

Date/timePositionNaut miles runAvg speedWind from/ knotsBaromVisibWave heightAir tempDewpointWater temp
2017-Oct-19 08:23N 38°02' W 009°55'14 9.5
2017-Oct-19 06:55N 38°16' W 009°59'4 8.9
2017-Oct-19 06:30N 38°19' W 009°60'4 8.7
2017-Oct-19 06:00N 38°23' W 010°01'4 8.8
2017-Oct-19 05:30N 38°28' W 010°03'4 8.7
2017-Oct-19 05:00N 38°32' W 010°04'5 8.8
2017-Oct-19 04:25N 38°37' W 010°06'4 8.7
2017-Oct-19 04:00N 38°40' W 010°07'4 8.7
2017-Oct-19 03:31N 38°45' W 010°07'4 8.7
2017-Oct-19 03:00N 38°49' W 010°07'4 8.8
2017-Oct-19 02:30N 38°54' W 010°07'4 8.9
2017-Oct-19 02:00N 38°58' W 010°08'4 8.4
2017-Oct-19 01:30N 39°02' W 010°08'4 8.4
2017-Oct-19 01:00N 39°06' W 010°08'4 8.7
2017-Oct-19 00:30N 39°11' W 010°07'5 9.0
2017-Oct-18 23:59N 39°15' W 010°07'  
2017-Oct-16 03:13N 46°55' W 005°58'2 7.4
2017-Oct-16 03:00N 46°57' W 005°58'4 7.3
2017-Oct-16 02:31N 47°00' W 005°58'4 7.4
2017-Oct-16 02:01N 47°04' W 005°57'4 7.6
2017-Oct-16 01:31N 47°08' W 005°58'4 7.7
2017-Oct-16 01:01N 47°12' W 005°58'4 7.8
2017-Oct-16 00:30N 47°16' W 005°59'6 7.7
2017-Oct-15 23:46N 47°21' W 005°60'2 7.6
2017-Oct-15 23:31N 47°23' W 006°00'3 6.6
2017-Oct-15 23:01N 47°26' W 006°01'3 6.9
2017-Oct-15 22:31N 47°30' W 006°00'4 7.5
2017-Oct-15 22:00N 47°34' W 006°00'4 7.7
2017-Oct-15 21:31N 47°37' W 006°01'4 7.8
2017-Oct-15 21:01N 47°41' W 006°01'4 8.1
2017-Oct-15 20:31N 47°45' W 006°01'4 8.2
2017-Oct-15 20:01N 47°50' W 006°02'4 8.4
2017-Oct-15 19:30N 47°54' W 006°02'4 8.8
2017-Oct-15 19:01N 47°58' W 006°01'5 9.2
2017-Oct-15 18:31N 48°03' W 006°01'5 9.3
2017-Oct-15 17:59N 48°08' W 006°01'11 9.3
2017-Oct-15 16:48N 48°18' W 005°59'7 9.0
2017-Oct-15 15:59N 48°26' W 005°56'10 8.6
2017-Oct-15 14:48N 48°36' W 005°56'6 7.7
2017-Oct-15 13:58N 48°42' W 005°55'10 7.1
2017-Oct-15 12:38N 48°51' W 005°48'5 7.0
2017-Oct-15 11:59N 48°54' W 005°43'8 7.1
2017-Oct-15 10:53N 48°58' W 005°33'3 7.6
2017-Oct-15 10:26N 49°00' W 005°29'4 7.8
2017-Oct-15 09:58N 49°02' W 005°25'8 8.3
2017-Oct-15 09:03N 49°07' W 005°15'0 8.5
2017-Oct-15 09:00N 49°07' W 005°15'5 8.7
2017-Oct-15 08:28N 49°10' W 005°09'4 9.1
2017-Oct-15 08:00N 49°12' W 005°03'5 9.1
2017-Oct-15 07:30N 49°14' W 004°57'5 9.2
2017-Oct-15 07:00N 49°17' W 004°52'5 9.2
2017-Oct-15 06:30N 49°19' W 004°46'5 9.2
2017-Oct-15 06:00N 49°22' W 004°40'4 8.7
2017-Oct-15 05:31N 49°24' W 004°34'4 8.5
2017-Oct-15 05:00N 49°25' W 004°28'4 8.2
2017-Oct-15 04:31N 49°27' W 004°22'4 7.9
2017-Oct-15 04:00N 49°29' W 004°17'4 7.6
2017-Oct-15 03:31N 49°31' W 004°12'4 7.4
2017-Oct-15 03:00N 49°33' W 004°07'4 7.3
2017-Oct-15 02:27N 49°35' W 004°01'4 7.3
2017-Oct-15 01:58N 49°37' W 003°57'4 7.2
2017-Oct-15 01:27N 49°39' W 003°52'3 7.2
2017-Oct-15 00:58N 49°41' W 003°47'3 7.3
2017-Oct-15 00:31N 49°43' W 003°43'4 7.7
2017-Oct-15 00:00N 49°44' W 003°38'4 8.1
2017-Oct-14 23:30N 49°47' W 003°32'4 8.6
2017-Oct-14 23:00N 49°49' W 003°27'5 9.1
2017-Oct-14 22:31N 49°51' W 003°20'5 9.4
2017-Oct-14 22:01N 49°53' W 003°14'5 9.8
2017-Oct-14 21:30N 49°55' W 003°07'510.0
2017-Oct-14 21:01N 49°58' W 003°00'510.1
2017-Oct-14 20:31N 49°60' W 002°53'510.1
2017-Oct-14 19:59N 50°02' W 002°46'5 9.9
2017-Oct-14 19:30N 50°03' W 002°39'5 9.5
2017-Oct-14 19:01N 50°05' W 002°32'5 9.1
2017-Oct-14 18:28N 50°06' W 002°24'4 8.5
2017-Oct-14 18:00N 50°07' W 002°18'4 8.0
2017-Oct-14 17:29N 50°08' W 002°12'4 7.5
2017-Oct-14 17:00N 50°09' W 002°07'4 7.1
2017-Oct-14 16:30N 50°10' W 002°01'3 6.7
2017-Oct-14 16:00N 50°11' W 001°56'3 6.5
2017-Oct-14 15:29N 50°12' W 001°51'3 6.3
2017-Oct-14 15:00N 50°12' W 001°47'3 6.4
2017-Oct-14 14:31N 50°13' W 001°42'3 6.6
2017-Oct-14 14:00N 50°14' W 001°37'3 7.0
2017-Oct-14 13:30N 50°15' W 001°32'4 7.5
2017-Oct-14 13:00N 50°16' W 001°26'10 8.5
2017-Oct-14 11:49N 50°20' W 001°11'3 9.4
2017-Oct-14 11:30N 50°20' W 001°06'5 9.9
2017-Oct-14 10:58N 50°22' W 000°58'610.1
2017-Oct-14 10:23N 50°23' W 000°50'510.2
2017-Oct-14 09:52N 50°25' W 000°42'1110.1
2017-Oct-14 08:45N 50°28' W 000°25'2 9.8
2017-Oct-14 08:30N 50°29' W 000°21'5 9.7
2017-Oct-14 08:01N 50°30' W 000°14'5 9.5
2017-Oct-14 07:31N 50°32' W 000°07'5 9.2
2017-Oct-14 07:01N 50°33' E 000°00'5 9.0
2017-Oct-14 06:30N 50°34' E 000°07'4 8.9
2017-Oct-14 06:01N 50°35' E 000°14'4 8.5
2017-Oct-14 05:30N 50°36' E 000°20'4 8.3
2017-Oct-14 05:01N 50°38' E 000°27'4 8.0
2017-Oct-14 04:31N 50°39' E 000°33'4 7.8
2017-Oct-14 04:01N 50°40' E 000°38'4 8.0
2017-Oct-14 03:31N 50°43' E 000°43'4 8.1
2017-Oct-14 03:01N 50°45' E 000°48'4 8.5
2017-Oct-14 02:31N 50°48' E 000°54'4 8.9
2017-Oct-14 02:01N 50°50' E 000°60'5 9.4
2017-Oct-14 01:29N 50°53' E 001°06'5 9.8
2017-Oct-14 01:00N 50°56' E 001°12'510.1
2017-Oct-14 00:31N 50°59' E 001°18'510.3
2017-Oct-14 00:01N 51°03' E 001°24'5 9.8
2017-Oct-13 23:31N 51°06' E 001°30'5 9.0
2017-Oct-13 23:00N 51°09' E 001°35'4 8.3
2017-Oct-13 22:30N 51°12' E 001°40'4 7.7
2017-Oct-13 22:00N 51°16' E 001°41'4 7.4
2017-Oct-13 21:31N 51°19' E 001°43'4 7.1
2017-Oct-13 21:01N 51°23' E 001°44'4 7.1
2017-Oct-13 20:30N 51°26' E 001°45'4 7.3
2017-Oct-13 20:01N 51°30' E 001°45'4 7.4
2017-Oct-13 19:31N 51°33' E 001°45'4 7.6
2017-Oct-13 19:00N 51°37' E 001°45'4 7.6
2017-Oct-13 18:31N 51°41' E 001°45'4 7.9
2017-Oct-13 18:00N 51°45' E 001°44'4 8.2
2017-Oct-13 17:31N 51°49' E 001°44'4 8.3
2017-Oct-13 17:00N 51°53' E 001°45'4 8.6
2017-Oct-13 16:31N 51°58' E 001°46'4 9.0
2017-Oct-13 16:01N 52°02' E 001°47'5 9.4
2017-Oct-13 15:31N 52°07' E 001°48'5 9.5
2017-Oct-13 15:01N 52°11' E 001°49'23 9.7
2017-Oct-13 12:38N 52°34' E 001°54'2 9.8
2017-Oct-13 12:27N 52°36' E 001°55'4 9.3
2017-Oct-13 12:00N 52°40' E 001°56'4 8.5
2017-Oct-13 11:30N 52°44' E 001°56'4 8.6
2017-Oct-13 11:01N 52°47' E 001°52'4 8.5
2017-Oct-13 10:30N 52°50' E 001°46'4 8.1
2017-Oct-13 10:01N 52°52' E 001°41'4 7.7
2017-Oct-13 09:31N 52°55' E 001°36'4 7.5
2017-Oct-13 09:00N 52°57' E 001°31'4 7.3
2017-Oct-13 08:31N 52°58' E 001°25'4 7.2
2017-Oct-13 08:00N 52°59' E 001°19'4 7.2
2017-Oct-13 07:31N 53°00' E 001°14'59 7.3
2017-Oct-12 23:30N 53°36' W 000°04'4 8.8
2017-Oct-12 23:00N 53°38' W 000°11'1 0.0
2017-Oct-11 16:56N 53°38' W 000°12'0 0.0
2017-Oct-10 09:35N 53°38' W 000°12'0 0.0
2017-Oct-10 09:30N 53°38' W 000°12'0 0.7
2017-Oct-10 08:58N 53°38' W 000°11'2 4.2
2017-Oct-10 08:30N 53°38' W 000°08'611.0
2017-Oct-10 08:00N 53°36' E 000°01'  
Track history (hours):
 
Tides and Currents Weather Stations Pressure Air Temp Water Temp Dewpoint Dewpoint Depression Visibility Wind Speed Wind Dir Waves Ship Positions

Paganini

Last reported at 2017-Oct-19 08:23 UTC. Time now 2017-Oct-22 15:47 UTC.
Position N 38°02' W 009°55'.

Length 90 m; draft 5.8 m.

Type: Cargo ship. MMSI: 305040000.

Date/timePositionNaut miles runAvg speedWind from/ knotsBaromVisibWave heightAir tempDewpointWater temp
2017-Oct-19 08:23N 38°02' W 009°55'14 9.5
2017-Oct-19 06:55N 38°16' W 009°59'4 8.9
2017-Oct-19 06:30N 38°19' W 009°60'4 8.7
2017-Oct-19 06:00N 38°23' W 010°01'4 8.8
2017-Oct-19 05:30N 38°28' W 010°03'4 8.7
2017-Oct-19 05:00N 38°32' W 010°04'5 8.8
2017-Oct-19 04:25N 38°37' W 010°06'4 8.7
2017-Oct-19 04:00N 38°40' W 010°07'4 8.7
2017-Oct-19 03:31N 38°45' W 010°07'4 8.7
2017-Oct-19 03:00N 38°49' W 010°07'4 8.8
2017-Oct-19 02:30N 38°54' W 010°07'4 8.9
2017-Oct-19 02:00N 38°58' W 010°08'4 8.4
2017-Oct-19 01:30N 39°02' W 010°08'4 8.4
2017-Oct-19 01:00N 39°06' W 010°08'4 8.7
2017-Oct-19 00:30N 39°11' W 010°07'5 9.0
2017-Oct-18 23:59N 39°15' W 010°07'  
2017-Oct-16 03:13N 46°55' W 005°58'2 7.4
2017-Oct-16 03:00N 46°57' W 005°58'4 7.3
2017-Oct-16 02:31N 47°00' W 005°58'4 7.4
2017-Oct-16 02:01N 47°04' W 005°57'4 7.6
2017-Oct-16 01:31N 47°08' W 005°58'4 7.7
2017-Oct-16 01:01N 47°12' W 005°58'4 7.8
2017-Oct-16 00:30N 47°16' W 005°59'6 7.7
2017-Oct-15 23:46N 47°21' W 005°60'2 7.6
2017-Oct-15 23:31N 47°23' W 006°00'3 6.6
2017-Oct-15 23:01N 47°26' W 006°01'3 6.9
2017-Oct-15 22:31N 47°30' W 006°00'4 7.5
2017-Oct-15 22:00N 47°34' W 006°00'4 7.7
2017-Oct-15 21:31N 47°37' W 006°01'4 7.8
2017-Oct-15 21:01N 47°41' W 006°01'4 8.1
2017-Oct-15 20:31N 47°45' W 006°01'4 8.2
2017-Oct-15 20:01N 47°50' W 006°02'4 8.4
2017-Oct-15 19:30N 47°54' W 006°02'4 8.8
2017-Oct-15 19:01N 47°58' W 006°01'5 9.2
2017-Oct-15 18:31N 48°03' W 006°01'5 9.3
2017-Oct-15 17:59N 48°08' W 006°01'11 9.3
2017-Oct-15 16:48N 48°18' W 005°59'7 9.0
2017-Oct-15 15:59N 48°26' W 005°56'10 8.6
2017-Oct-15 14:48N 48°36' W 005°56'6 7.7
2017-Oct-15 13:58N 48°42' W 005°55'10 7.1
2017-Oct-15 12:38N 48°51' W 005°48'5 7.0
2017-Oct-15 11:59N 48°54' W 005°43'8 7.1
2017-Oct-15 10:53N 48°58' W 005°33'3 7.6
2017-Oct-15 10:26N 49°00' W 005°29'4 7.8
2017-Oct-15 09:58N 49°02' W 005°25'8 8.3
2017-Oct-15 09:03N 49°07' W 005°15'0 8.5
2017-Oct-15 09:00N 49°07' W 005°15'5 8.7
2017-Oct-15 08:28N 49°10' W 005°09'4 9.1
2017-Oct-15 08:00N 49°12' W 005°03'5 9.1
2017-Oct-15 07:30N 49°14' W 004°57'5 9.2
2017-Oct-15 07:00N 49°17' W 004°52'5 9.2
2017-Oct-15 06:30N 49°19' W 004°46'5 9.2
2017-Oct-15 06:00N 49°22' W 004°40'4 8.7
2017-Oct-15 05:31N 49°24' W 004°34'4 8.5
2017-Oct-15 05:00N 49°25' W 004°28'4 8.2
2017-Oct-15 04:31N 49°27' W 004°22'4 7.9
2017-Oct-15 04:00N 49°29' W 004°17'4 7.6
2017-Oct-15 03:31N 49°31' W 004°12'4 7.4
2017-Oct-15 03:00N 49°33' W 004°07'4 7.3
2017-Oct-15 02:27N 49°35' W 004°01'4 7.3
2017-Oct-15 01:58N 49°37' W 003°57'4 7.2
2017-Oct-15 01:27N 49°39' W 003°52'3 7.2
2017-Oct-15 00:58N 49°41' W 003°47'3 7.3
2017-Oct-15 00:31N 49°43' W 003°43'4 7.7
2017-Oct-15 00:00N 49°44' W 003°38'4 8.1
2017-Oct-14 23:30N 49°47' W 003°32'4 8.6
2017-Oct-14 23:00N 49°49' W 003°27'5 9.1
2017-Oct-14 22:31N 49°51' W 003°20'5 9.4
2017-Oct-14 22:01N 49°53' W 003°14'5 9.8
2017-Oct-14 21:30N 49°55' W 003°07'510.0
2017-Oct-14 21:01N 49°58' W 003°00'510.1
2017-Oct-14 20:31N 49°60' W 002°53'510.1
2017-Oct-14 19:59N 50°02' W 002°46'5 9.9
2017-Oct-14 19:30N 50°03' W 002°39'5 9.5
2017-Oct-14 19:01N 50°05' W 002°32'5 9.1
2017-Oct-14 18:28N 50°06' W 002°24'4 8.5
2017-Oct-14 18:00N 50°07' W 002°18'4 8.0
2017-Oct-14 17:29N 50°08' W 002°12'4 7.5
2017-Oct-14 17:00N 50°09' W 002°07'4 7.1
2017-Oct-14 16:30N 50°10' W 002°01'3 6.7
2017-Oct-14 16:00N 50°11' W 001°56'3 6.5
2017-Oct-14 15:29N 50°12' W 001°51'3 6.3
2017-Oct-14 15:00N 50°12' W 001°47'3 6.4
2017-Oct-14 14:31N 50°13' W 001°42'3 6.6
2017-Oct-14 14:00N 50°14' W 001°37'3 7.0
2017-Oct-14 13:30N 50°15' W 001°32'4 7.5
2017-Oct-14 13:00N 50°16' W 001°26'10 8.5
2017-Oct-14 11:49N 50°20' W 001°11'3 9.4
2017-Oct-14 11:30N 50°20' W 001°06'5 9.9
2017-Oct-14 10:58N 50°22' W 000°58'610.1
2017-Oct-14 10:23N 50°23' W 000°50'510.2
2017-Oct-14 09:52N 50°25' W 000°42'1110.1
2017-Oct-14 08:45N 50°28' W 000°25'2 9.8
2017-Oct-14 08:30N 50°29' W 000°21'5 9.7
2017-Oct-14 08:01N 50°30' W 000°14'5 9.5
2017-Oct-14 07:31N 50°32' W 000°07'5 9.2
2017-Oct-14 07:01N 50°33' E 000°00'5 9.0
2017-Oct-14 06:30N 50°34' E 000°07'4 8.9
2017-Oct-14 06:01N 50°35' E 000°14'4 8.5
2017-Oct-14 05:30N 50°36' E 000°20'4 8.3
2017-Oct-14 05:01N 50°38' E 000°27'4 8.0
2017-Oct-14 04:31N 50°39' E 000°33'4 7.8
2017-Oct-14 04:01N 50°40' E 000°38'4 8.0
2017-Oct-14 03:31N 50°43' E 000°43'4 8.1
2017-Oct-14 03:01N 50°45' E 000°48'4 8.5
2017-Oct-14 02:31N 50°48' E 000°54'4 8.9
2017-Oct-14 02:01N 50°50' E 000°60'5 9.4
2017-Oct-14 01:29N 50°53' E 001°06'5 9.8
2017-Oct-14 01:00N 50°56' E 001°12'510.1
2017-Oct-14 00:31N 50°59' E 001°18'510.3
2017-Oct-14 00:01N 51°03' E 001°24'5 9.8
2017-Oct-13 23:31N 51°06' E 001°30'5 9.0
2017-Oct-13 23:00N 51°09' E 001°35'4 8.3
2017-Oct-13 22:30N 51°12' E 001°40'4 7.7
2017-Oct-13 22:00N 51°16' E 001°41'4 7.4
2017-Oct-13 21:31N 51°19' E 001°43'4 7.1
2017-Oct-13 21:01N 51°23' E 001°44'4 7.1
2017-Oct-13 20:30N 51°26' E 001°45'4 7.3
2017-Oct-13 20:01N 51°30' E 001°45'4 7.4
2017-Oct-13 19:31N 51°33' E 001°45'4 7.6
2017-Oct-13 19:00N 51°37' E 001°45'4 7.6
2017-Oct-13 18:31N 51°41' E 001°45'4 7.9
2017-Oct-13 18:00N 51°45' E 001°44'4 8.2
2017-Oct-13 17:31N 51°49' E 001°44'4 8.3
2017-Oct-13 17:00N 51°53' E 001°45'4 8.6
2017-Oct-13 16:31N 51°58' E 001°46'4 9.0
2017-Oct-13 16:01N 52°02' E 001°47'5 9.4
2017-Oct-13 15:31N 52°07' E 001°48'5 9.5
2017-Oct-13 15:01N 52°11' E 001°49'23 9.7
2017-Oct-13 12:38N 52°34' E 001°54'2 9.8
2017-Oct-13 12:27N 52°36' E 001°55'4 9.3
2017-Oct-13 12:00N 52°40' E 001°56'4 8.5
2017-Oct-13 11:30N 52°44' E 001°56'4 8.6
2017-Oct-13 11:01N 52°47' E 001°52'4 8.5
2017-Oct-13 10:30N 52°50' E 001°46'4 8.1
2017-Oct-13 10:01N 52°52' E 001°41'4 7.7
2017-Oct-13 09:31N 52°55' E 001°36'4 7.5
2017-Oct-13 09:00N 52°57' E 001°31'4 7.3
2017-Oct-13 08:31N 52°58' E 001°25'4 7.2
2017-Oct-13 08:00N 52°59' E 001°19'4 7.2
2017-Oct-13 07:31N 53°00' E 001°14'59 7.3
2017-Oct-12 23:30N 53°36' W 000°04'4 8.8
2017-Oct-12 23:00N 53°38' W 000°11'1 0.0
2017-Oct-11 16:56N 53°38' W 000°12'0 0.0
2017-Oct-10 09:35N 53°38' W 000°12'0 0.0
2017-Oct-10 09:30N 53°38' W 000°12'0 0.7
2017-Oct-10 08:58N 53°38' W 000°11'2 4.2
2017-Oct-10 08:30N 53°38' W 000°08'611.0
2017-Oct-10 08:00N 53°36' E 000°01'  

Dump ship's entire track history